sensor_id;sensor_type;location;lat;lon;timestamp;temperature;humidity
52073;DHT22;38074;51.232;6.826;2022-09-30T00:05:15;23.30;45.30
52073;DHT22;38074;51.232;6.826;2022-09-30T00:12:31;23.30;45.30
52073;DHT22;38074;51.232;6.826;2022-09-30T00:19:46;23.30;45.20
52073;DHT22;38074;51.232;6.826;2022-09-30T00:27:02;23.30;45.30
52073;DHT22;38074;51.232;6.826;2022-09-30T00:34:17;23.30;45.20
52073;DHT22;38074;51.232;6.826;2022-09-30T00:41:34;23.30;45.10
52073;DHT22;38074;51.232;6.826;2022-09-30T00:48:51;23.30;45.10
52073;DHT22;38074;51.232;6.826;2022-09-30T00:56:12;23.30;45.10
52073;DHT22;38074;51.232;6.826;2022-09-30T01:03:34;23.20;45.00
52073;DHT22;38074;51.232;6.826;2022-09-30T01:10:51;23.30;45.00
52073;DHT22;38074;51.232;6.826;2022-09-30T01:18:24;23.20;44.90
52073;DHT22;38074;51.232;6.826;2022-09-30T01:40:48;23.30;44.90
52073;DHT22;38074;51.232;6.826;2022-09-30T01:48:42;23.20;44.80
52073;DHT22;38074;51.232;6.826;2022-09-30T02:03:35;23.20;44.70
52073;DHT22;38074;51.232;6.826;2022-09-30T02:11:08;23.20;44.70
52073;DHT22;38074;51.232;6.826;2022-09-30T02:18:46;23.20;44.70
52073;DHT22;38074;51.232;6.826;2022-09-30T02:26:16;23.20;44.60
52073;DHT22;38074;51.232;6.826;2022-09-30T02:33:37;23.20;44.60
52073;DHT22;38074;51.232;6.826;2022-09-30T02:41:01;23.20;44.50
52073;DHT22;38074;51.232;6.826;2022-09-30T02:48:53;23.20;44.50
52073;DHT22;38074;51.232;6.826;2022-09-30T02:56:18;23.20;44.40
52073;DHT22;38074;51.232;6.826;2022-09-30T03:03:49;23.20;44.50
52073;DHT22;38074;51.232;6.826;2022-09-30T03:11:06;23.20;44.40
52073;DHT22;38074;51.232;6.826;2022-09-30T03:34:26;23.20;44.30
52073;DHT22;38074;51.232;6.826;2022-09-30T03:48:50;23.20;44.20
52073;DHT22;38074;51.232;6.826;2022-09-30T03:56:07;23.20;44.20
52073;DHT22;38074;51.232;6.826;2022-09-30T04:03:22;23.20;44.20
52073;DHT22;38074;51.232;6.826;2022-09-30T04:10:39;23.20;44.10
52073;DHT22;38074;51.232;6.826;2022-09-30T04:17:55;23.20;44.10
52073;DHT22;38074;51.232;6.826;2022-09-30T04:25:11;23.20;44.10
52073;DHT22;38074;51.232;6.826;2022-09-30T04:32:27;23.10;44.00
52073;DHT22;38074;51.232;6.826;2022-09-30T04:39:43;23.10;44.00
52073;DHT22;38074;51.232;6.826;2022-09-30T04:46:58;23.20;44.00
52073;DHT22;38074;51.232;6.826;2022-09-30T04:54:15;23.10;43.90
52073;DHT22;38074;51.232;6.826;2022-09-30T05:01:30;23.10;43.90
52073;DHT22;38074;51.232;6.826;2022-09-30T05:08:46;23.10;43.90
52073;DHT22;38074;51.232;6.826;2022-09-30T05:16:02;23.10;43.90
52073;DHT22;38074;51.232;6.826;2022-09-30T05:23:19;23.10;44.10
52073;DHT22;38074;51.232;6.826;2022-09-30T05:30:35;23.10;44.30
52073;DHT22;38074;51.232;6.826;2022-09-30T05:37:50;23.20;44.40
52073;DHT22;38074;51.232;6.826;2022-09-30T05:45:06;23.20;44.30
52073;DHT22;38074;51.232;6.826;2022-09-30T05:52:22;23.20;44.10
52073;DHT22;38074;51.232;6.826;2022-09-30T05:59:37;23.10;44.00
52073;DHT22;38074;51.232;6.826;2022-09-30T06:06:53;23.10;44.30
52073;DHT22;38074;51.232;6.826;2022-09-30T06:14:08;23.20;44.60
52073;DHT22;38074;51.232;6.826;2022-09-30T06:21:24;23.20;45.60
52073;DHT22;38074;51.232;6.826;2022-09-30T06:28:40;23.30;45.10
52073;DHT22;38074;51.232;6.826;2022-09-30T06:35:56;23.30;45.20
52073;DHT22;38074;51.232;6.826;2022-09-30T06:43:12;23.20;44.90
52073;DHT22;38074;51.232;6.826;2022-09-30T06:50:32;23.30;45.00
52073;DHT22;38074;51.232;6.826;2022-09-30T06:57:47;23.30;45.00
52073;DHT22;38074;51.232;6.826;2022-09-30T07:05:03;23.30;45.10
52073;DHT22;38074;51.232;6.826;2022-09-30T07:12:19;23.30;45.10
52073;DHT22;38074;51.232;6.826;2022-09-30T07:19:34;23.30;45.20
52073;DHT22;38074;51.232;6.826;2022-09-30T07:26:50;23.30;45.20
52073;DHT22;38074;51.232;6.826;2022-09-30T07:34:08;23.30;45.20
52073;DHT22;38074;51.232;6.826;2022-09-30T07:41:25;23.30;45.20
52073;DHT22;38074;51.232;6.826;2022-09-30T07:48:44;23.30;45.20
52073;DHT22;38074;51.232;6.826;2022-09-30T07:56:06;23.30;45.20
52073;DHT22;38074;51.232;6.826;2022-09-30T08:03:22;23.30;45.20
52073;DHT22;38074;51.232;6.826;2022-09-30T08:10:38;23.40;45.30
52073;DHT22;38074;51.232;6.826;2022-09-30T08:17:53;23.40;45.30
52073;DHT22;38074;51.232;6.826;2022-09-30T08:25:09;23.40;45.30
52073;DHT22;38074;51.232;6.826;2022-09-30T08:32:26;23.40;45.20
52073;DHT22;38074;51.232;6.826;2022-09-30T08:39:43;23.40;45.20
52073;DHT22;38074;51.232;6.826;2022-09-30T08:47:29;23.40;45.20
52073;DHT22;38074;51.232;6.826;2022-09-30T08:54:51;23.40;45.30
52073;DHT22;38074;51.232;6.826;2022-09-30T09:02:25;23.40;45.40
52073;DHT22;38074;51.232;6.826;2022-09-30T09:18:00;23.40;45.30
52073;DHT22;38074;51.232;6.826;2022-09-30T09:25:24;23.40;45.90
52073;DHT22;38074;51.232;6.826;2022-09-30T09:32:43;23.40;45.30
52073;DHT22;38074;51.232;6.826;2022-09-30T09:40:10;23.40;45.40
52073;DHT22;38074;51.232;6.826;2022-09-30T09:47:27;23.50;45.50
52073;DHT22;38074;51.232;6.826;2022-09-30T09:54:49;23.50;45.50
52073;DHT22;38074;51.232;6.826;2022-09-30T10:02:22;23.40;45.50
52073;DHT22;38074;51.232;6.826;2022-09-30T10:09:40;23.50;45.60
52073;DHT22;38074;51.232;6.826;2022-09-30T10:16:59;23.50;45.60
52073;DHT22;38074;51.232;6.826;2022-09-30T10:24:35;23.50;45.60
52073;DHT22;38074;51.232;6.826;2022-09-30T10:31:51;23.50;45.70
52073;DHT22;38074;51.232;6.826;2022-09-30T10:39:22;23.50;45.70
52073;DHT22;38074;51.232;6.826;2022-09-30T10:46:39;23.50;45.60
52073;DHT22;38074;51.232;6.826;2022-09-30T10:53:56;23.50;45.10
52073;DHT22;38074;51.232;6.826;2022-09-30T11:08:48;23.40;44.20
52073;DHT22;38074;51.232;6.826;2022-09-30T11:23:36;23.40;44.40
52073;DHT22;38074;51.232;6.826;2022-09-30T11:31:38;23.40;44.40
52073;DHT22;38074;51.232;6.826;2022-09-30T12:01:24;23.40;44.40
52073;DHT22;38074;51.232;6.826;2022-09-30T12:08:52;23.40;44.40
52073;DHT22;38074;51.232;6.826;2022-09-30T12:16:17;23.40;44.20
52073;DHT22;38074;51.232;6.826;2022-09-30T12:23:42;23.40;44.00
52073;DHT22;38074;51.232;6.826;2022-09-30T12:46:44;23.40;43.60
52073;DHT22;38074;51.232;6.826;2022-09-30T12:54:20;23.40;43.40
52073;DHT22;38074;51.232;6.826;2022-09-30T13:01:39;23.30;43.30
52073;DHT22;38074;51.232;6.826;2022-09-30T13:16:11;23.30;43.20
52073;DHT22;38074;51.232;6.826;2022-09-30T13:31:11;23.30;43.10
52073;DHT22;38074;51.232;6.826;2022-09-30T13:38:38;23.40;42.60
52073;DHT22;38074;51.232;6.826;2022-09-30T13:45:55;23.30;42.30
52073;DHT22;38074;51.232;6.826;2022-09-30T13:53:20;23.30;42.30
52073;DHT22;38074;51.232;6.826;2022-09-30T14:01:11;23.30;42.20
52073;DHT22;38074;51.232;6.826;2022-09-30T14:08:47;23.30;41.90
52073;DHT22;38074;51.232;6.826;2022-09-30T14:16:24;23.30;41.70
52073;DHT22;38074;51.232;6.826;2022-09-30T14:31:45;23.30;41.60
52073;DHT22;38074;51.232;6.826;2022-09-30T14:39:01;23.30;42.00
52073;DHT22;38074;51.232;6.826;2022-09-30T14:46:29;23.30;42.00
52073;DHT22;38074;51.232;6.826;2022-09-30T14:53:57;23.30;42.00
52073;DHT22;38074;51.232;6.826;2022-09-30T15:01:18;23.30;42.60
52073;DHT22;38074;51.232;6.826;2022-09-30T15:08:36;23.30;42.00
52073;DHT22;38074;51.232;6.826;2022-09-30T15:15:52;23.30;41.90
52073;DHT22;38074;51.232;6.826;2022-09-30T15:23:15;23.30;41.80
52073;DHT22;38074;51.232;6.826;2022-09-30T15:30:32;23.30;41.80
52073;DHT22;38074;51.232;6.826;2022-09-30T15:37:49;23.30;41.80
52073;DHT22;38074;51.232;6.826;2022-09-30T15:45:32;23.30;41.70
52073;DHT22;38074;51.232;6.826;2022-09-30T15:52:48;23.20;41.70
52073;DHT22;38074;51.232;6.826;2022-09-30T16:00:05;23.30;41.60
52073;DHT22;38074;51.232;6.826;2022-09-30T16:07:24;23.30;41.60
52073;DHT22;38074;51.232;6.826;2022-09-30T16:14:49;23.30;41.30
52073;DHT22;38074;51.232;6.826;2022-09-30T16:22:35;23.30;41.40
52073;DHT22;38074;51.232;6.826;2022-09-30T16:30:05;23.30;41.30
52073;DHT22;38074;51.232;6.826;2022-09-30T16:37:21;23.30;41.40
52073;DHT22;38074;51.232;6.826;2022-09-30T16:44:37;23.30;41.40
52073;DHT22;38074;51.232;6.826;2022-09-30T16:51:53;23.30;41.40
52073;DHT22;38074;51.232;6.826;2022-09-30T16:59:13;23.30;41.50
52073;DHT22;38074;51.232;6.826;2022-09-30T17:06:30;23.30;41.50
52073;DHT22;38074;51.232;6.826;2022-09-30T17:13:46;23.30;41.60
52073;DHT22;38074;51.232;6.826;2022-09-30T17:21:02;23.30;41.70
52073;DHT22;38074;51.232;6.826;2022-09-30T17:28:17;23.30;41.70
52073;DHT22;38074;51.232;6.826;2022-09-30T17:35:33;23.30;41.80
52073;DHT22;38074;51.232;6.826;2022-09-30T17:42:49;23.30;41.70
52073;DHT22;38074;51.232;6.826;2022-09-30T17:50:24;23.30;41.80
52073;DHT22;38074;51.232;6.826;2022-09-30T17:57:39;23.30;41.80
52073;DHT22;38074;51.232;6.826;2022-09-30T18:04:55;23.30;42.00
52073;DHT22;38074;51.232;6.826;2022-09-30T18:12:10;23.30;42.00
52073;DHT22;38074;51.232;6.826;2022-09-30T18:19:26;23.30;42.00
52073;DHT22;38074;51.232;6.826;2022-09-30T18:26:42;23.20;42.00
52073;DHT22;38074;51.232;6.826;2022-09-30T18:33:57;23.30;42.10
52073;DHT22;38074;51.232;6.826;2022-09-30T18:41:13;23.20;42.10
52073;DHT22;38074;51.232;6.826;2022-09-30T18:48:29;23.30;42.20
52073;DHT22;38074;51.232;6.826;2022-09-30T18:55:47;23.30;42.20
52073;DHT22;38074;51.232;6.826;2022-09-30T19:03:03;23.30;42.30
52073;DHT22;38074;51.232;6.826;2022-09-30T19:10:18;23.30;42.40
52073;DHT22;38074;51.232;6.826;2022-09-30T19:17:34;23.30;42.40
52073;DHT22;38074;51.232;6.826;2022-09-30T19:24:51;23.30;42.40
52073;DHT22;38074;51.232;6.826;2022-09-30T19:32:06;23.30;42.50
52073;DHT22;38074;51.232;6.826;2022-09-30T19:39:24;23.20;42.50
52073;DHT22;38074;51.232;6.826;2022-09-30T19:46:39;23.20;42.50
52073;DHT22;38074;51.232;6.826;2022-09-30T19:53:55;23.20;42.50
52073;DHT22;38074;51.232;6.826;2022-09-30T20:01:12;23.20;42.50
52073;DHT22;38074;51.232;6.826;2022-09-30T20:08:32;23.20;42.50
52073;DHT22;38074;51.232;6.826;2022-09-30T20:15:48;23.20;42.40
52073;DHT22;38074;51.232;6.826;2022-09-30T20:23:07;23.20;42.60
52073;DHT22;38074;51.232;6.826;2022-09-30T20:30:23;23.20;42.50
52073;DHT22;38074;51.232;6.826;2022-09-30T20:37:39;23.20;42.50
52073;DHT22;38074;51.232;6.826;2022-09-30T20:44:56;23.20;42.50
52073;DHT22;38074;51.232;6.826;2022-09-30T20:52:15;23.20;42.50
52073;DHT22;38074;51.232;6.826;2022-09-30T20:59:30;23.20;42.40
52073;DHT22;38074;51.232;6.826;2022-09-30T21:06:46;23.20;42.30
52073;DHT22;38074;51.232;6.826;2022-09-30T21:14:02;23.10;42.30
52073;DHT22;38074;51.232;6.826;2022-09-30T21:21:18;23.10;42.20
52073;DHT22;38074;51.232;6.826;2022-09-30T21:28:34;23.10;42.30
52073;DHT22;38074;51.232;6.826;2022-09-30T21:36:11;23.10;42.30
52073;DHT22;38074;51.232;6.826;2022-09-30T21:43:34;23.10;42.10
52073;DHT22;38074;51.232;6.826;2022-09-30T21:50:50;23.10;42.20
52073;DHT22;38074;51.232;6.826;2022-09-30T21:58:06;23.10;42.00
52073;DHT22;38074;51.232;6.826;2022-09-30T22:05:21;23.10;41.90
52073;DHT22;38074;51.232;6.826;2022-09-30T22:12:37;23.10;41.90
52073;DHT22;38074;51.232;6.826;2022-09-30T22:19:53;23.10;41.70
52073;DHT22;38074;51.232;6.826;2022-09-30T22:27:09;23.10;41.50
52073;DHT22;38074;51.232;6.826;2022-09-30T22:34:25;23.10;41.40
52073;DHT22;38074;51.232;6.826;2022-09-30T22:42:00;23.10;41.40
52073;DHT22;38074;51.232;6.826;2022-09-30T22:49:16;23.10;41.30
52073;DHT22;38074;51.232;6.826;2022-09-30T22:56:31;23.10;41.30
52073;DHT22;38074;51.232;6.826;2022-09-30T23:03:51;23.10;41.20
52073;DHT22;38074;51.232;6.826;2022-09-30T23:11:09;23.10;41.10
52073;DHT22;38074;51.232;6.826;2022-09-30T23:18:26;23.10;41.20
52073;DHT22;38074;51.232;6.826;2022-09-30T23:25:41;23.10;41.00
52073;DHT22;38074;51.232;6.826;2022-09-30T23:32:57;23.10;41.00
52073;DHT22;38074;51.232;6.826;2022-09-30T23:40:12;23.00;41.00
52073;DHT22;38074;51.232;6.826;2022-09-30T23:47:28;23.00;41.10
52073;DHT22;38074;51.232;6.826;2022-09-30T23:54:43;23.00;41.10
